Flight Track Log - Related Links

Times and Time Zones

All times are in EDT time to prevent confusion due to time zone crossing. See the N173DS flight status page for this flight to view local times or setup timezone preferences in your user account.

Time Position Orientation Groundspeed Altitude Reporting Facility
EDT Latitude Longitude Course Direction KTS MPH feet Rate Location/Type
Wed 02:10:20 PM 35.3189 -86.2611 158° South 232 267 6,000  Level Memphis Center
Wed 02:11:22 PM 35.2622 -86.2372 161° South 220 253 8,200 2,226 Climbing Memphis Center
Wed 02:12:24 PM 35.1753 -86.1950 158° South 291 335 10,600 2,468 Climbing Memphis Center
Wed 02:13:26 PM 35.0836 -86.1525 159° South 343 395 13,300 3,126 Climbing Memphis Center
Wed 02:15:00 PM 34.7947 -85.9276 158° South  Level Estimated
Wed 02:15:11 PM 34.9108 -86.0728 159° South 371 427 19,300  Level Atlanta Center
Wed 02:16:11 PM 34.8031 -86.0169 157° South 390 449 22,400 1,850 Climbing Atlanta Center
Wed 02:17:11 PM 34.6808 -85.9586 159° South 433 498 23,000 1,150 Climbing Atlanta Center
Wed 02:18:11 PM 34.5628 -85.9028 159° South 458 527 24,700 1,000 Climbing Atlanta Center
Wed 02:19:11 PM 34.4447 -85.8472 159° South 458 527 25,000 150 Climbing Atlanta Center
Wed 02:20:11 PM 34.3078 -85.7892 161° South 464 534 25,000  Level Atlanta Center
Wed 02:21:11 PM 34.1875 -85.7314 158° South 469 540 25,000  Level Atlanta Center
Wed 02:22:11 PM 34.0611 -85.6736 159° South 469 540 25,000  Level Atlanta Center
Wed 02:23:11 PM 33.9408 -85.6164 158° South 469 540 25,000 150 Level Atlanta Center
Wed 02:24:11 PM 33.8183 -85.5614 160° South 469 540 25,300 1,050 Climbing Atlanta Center
Wed 02:25:11 PM 33.6936 -85.5044 159° South 469 540 27,100 2,000 Climbing Atlanta Center
Wed 02:26:11 PM 33.5733 -85.4475 158° South 469 540 29,300 2,200 Climbing Atlanta Center
Wed 02:27:11 PM 33.4486 -85.3933 160° South 469 540 31,500 2,050 Climbing Atlanta Center
Wed 02:28:11 PM 33.3261 -85.3392 160° South 469 540 33,400 1,700 Climbing Atlanta Center
Wed 02:29:11 PM 33.2056 -85.2803 158° South 469 540 34,900 1,500 Climbing Atlanta Center
Wed 02:30:11 PM 33.0831 -85.2264 160° South 464 534 36,400 1,050 Climbing Atlanta Center
Wed 02:31:11 PM 32.9728 -85.1778 160° South 469 540 37,000 300 Climbing Atlanta Center
Wed 02:32:11 PM 32.8292 -85.1364 166° South 474 545 37,000  Level Atlanta Center
Wed 02:33:11 PM 32.7086 -85.0881 161° South 485 558 37,000  Level Atlanta Center
Wed 02:34:11 PM 32.5836 -85.0472 165° South 486 559 37,000  Level Atlanta Center
Wed 02:35:11 PM 32.4506 -85.0014 164° South 486 559 37,000  Level Atlanta Center
Wed 02:36:11 PM 32.3214 -84.9581 164° South 486 559 37,000  Level Atlanta Center
Wed 02:37:11 PM 32.1797 -84.9125 165° South 486 559 37,000  Level Atlanta Center
Wed 02:41:04 PM 31.6917 -84.7483 164° South 480 552 37,000  Level Jacksonville Center
Wed 02:42:04 PM 31.5628 -84.7067 165° South 480 552 37,000  Level Jacksonville Center
Wed 02:43:04 PM 31.4339 -84.6628 164° South 480 552 37,000  Level Jacksonville Center
Wed 02:44:04 PM 31.3050 -84.6214 165° South 480 552 37,000  Level Jacksonville Center
Wed 02:45:04 PM 31.1761 -84.5803 165° South 480 552 37,000  Level Jacksonville Center
Wed 02:46:04 PM 31.0472 -84.5367 164° South 485 558 37,000  Level Jacksonville Center
Wed 02:47:04 PM 30.9203 -84.4933 164° South 485 558 37,000  Level Jacksonville Center
Wed 02:48:04 PM 30.7914 -84.4525 165° South 485 558 37,000  Level Jacksonville Center
Wed 02:49:04 PM 30.6625 -84.4092 164° South 485 558 37,000  Level Jacksonville Center
Wed 02:50:04 PM 30.5233 -84.3514 160° South 480 552 37,000  Level Jacksonville Center
Wed 02:51:04 PM 30.4072 -84.2750 150° Southeast 475 547 37,000  Level Jacksonville Center
Wed 02:52:04 PM 30.2933 -84.2014 151° Southeast 475 547 37,000  Level Jacksonville Center
Wed 02:53:04 PM 30.1872 -84.1375 153° Southeast 475 547 37,000  Level Jacksonville Center
Wed 02:54:04 PM 30.0711 -84.0592 150° Southeast 475 547 37,000  Level Jacksonville Center
Wed 02:55:04 PM 29.9528 -83.9833 151° Southeast 475 547 37,000  Level Jacksonville Center
Wed 02:56:04 PM 29.8344 -83.9031 150° Southeast 485 558 37,000  Level Jacksonville Center
Wed 02:57:04 PM 29.7161 -83.8300 152° Southeast 485 558 37,000 -400 Level Jacksonville Center
Wed 02:58:04 PM 29.5997 -83.7547 151° Southeast 485 558 36,200 -2,150 Descending Jacksonville Center
Wed 02:59:04 PM 29.4667 -83.6703 151° Southeast 480 552 32,700 -3,200 Descending Jacksonville Center
Wed 03:00:04 PM 29.3503 -83.5953 151° Southeast 485 558 29,800 -2,950 Descending Jacksonville Center
Wed 03:01:04 PM 29.2317 -83.5183 150° Southeast 485 558 26,800 -2,900 Descending Jacksonville Center
Wed 03:02:04 PM 29.1131 -83.4417 151° Southeast 485 558 24,000 -2,450 Descending Jacksonville Center
Wed 03:03:04 PM 29.0006 -83.3722 152° Southeast 478 550 21,900 -1,900 Descending Jacksonville Center
Wed 03:04:04 PM 28.8922 -83.3028 151° Southeast 458 527 20,200 -1,700 Descending Jacksonville Center
Wed 03:05:04 PM 28.7839 -83.2314 150° Southeast 446 513 18,500 -1,600 Descending Jacksonville Center
Wed 03:06:04 PM 28.6756 -83.1669 152° Southeast 446 513 17,000 -1,550 Descending Jacksonville Center
Wed 03:07:04 PM 28.5714 -83.0983 150° Southeast 441 507 15,400 -1,541 Descending Jacksonville Center
Wed 03:08:32 PM 28.4333 -83.0167 153° Southeast 350 403 13,200 -1,500 Descending Tampa TRACON
Wed 03:09:32 PM 28.3500 -82.9667 152° Southeast 312 359 11,700 -1,650 Descending Tampa TRACON
Wed 03:10:32 PM 28.2833 -82.9167 147° Southeast 322 371 9,900 -1,850 Descending Tampa TRACON
Wed 03:11:32 PM 28.2667 -82.8167 101° East 302 348 8,000 -1,900 Descending Tampa TRACON
Wed 03:12:32 PM 28.2667 -82.7167 90° East 297 342 6,100 -1,050 Descending Tampa TRACON
Wed 03:13:32 PM 28.2500 -82.6333 103° East 254 292 5,900 -850 Descending Tampa TRACON
Wed 03:14:32 PM 28.2000 -82.6000 150° Southeast 263 303 4,400 -1,600 Descending Tampa TRACON
Wed 03:15:32 PM 28.1333 -82.5500 147° Southeast 260 299 2,700 -1,200 Descending Tampa TRACON
Wed 03:16:32 PM 28.0833 -82.5333 164° South 197 227 2,000 -900 Descending Tampa TRACON
Wed 03:17:32 PM 28.0333 -82.5333 180° South 142 163 900 -850 Descending Tampa TRACON
Wed 03:18:32 PM 28.0000 -82.5333 180° South 129 148 300 -600 Descending Tampa TRACON

Login

Don't have an account? Register now (free) for customized features, flight alerts, and more!